createdAt,value
2022-11-16T00:00:10.433Z,6.33
2022-11-16T00:01:42.244Z,6.80
2022-11-16T00:03:14.058Z,6.67
2022-11-16T00:04:45.772Z,6.23
2022-11-16T00:06:18.145Z,7.00
2022-11-16T00:07:49.789Z,7.10
2022-11-16T00:09:26.637Z,7.00
2022-11-16T00:11:09.641Z,7.70
2022-11-16T00:12:41.320Z,6.50
2022-11-16T00:14:12.987Z,6.73
2022-11-16T00:15:54.195Z,6.90
2022-11-16T00:17:25.891Z,6.93
2022-11-16T00:19:03.246Z,7.07
2022-11-16T00:20:34.855Z,6.60
2022-11-16T00:22:06.580Z,7.57
2022-11-16T00:23:38.663Z,7.53
2022-11-16T00:25:10.298Z,7.40
2022-11-16T00:26:42.510Z,7.20
2022-11-16T00:28:14.778Z,7.90
2022-11-16T00:29:46.445Z,7.40
2022-11-16T00:31:18.866Z,6.90
2022-11-16T00:32:50.714Z,6.23
2022-11-16T00:34:23.730Z,6.60
2022-11-16T00:35:55.626Z,6.80
2022-11-16T00:37:27.310Z,7.50
2022-11-16T00:38:58.909Z,6.40
2022-11-16T00:40:30.573Z,6.50
2022-11-16T00:42:02.222Z,7.17
2022-11-16T00:43:35.759Z,6.50
2022-11-16T00:45:07.994Z,6.27
2022-11-16T00:46:40.308Z,6.53
2022-11-16T00:48:13.118Z,7.20
2022-11-16T00:49:44.911Z,6.80
2022-11-16T00:51:17.370Z,7.13
2022-11-16T00:52:49.087Z,6.97
2022-11-16T00:54:22.133Z,6.57
2022-11-16T00:55:54.383Z,7.00
2022-11-16T00:57:26.184Z,6.90
2022-11-16T00:58:58.222Z,7.27
2022-11-16T01:00:30.067Z,6.67
2022-11-16T01:02:01.723Z,7.20
2022-11-16T01:03:37.514Z,7.03
2022-11-16T01:05:10.068Z,6.73
2022-11-16T01:06:41.688Z,6.87
2022-11-16T01:08:13.846Z,6.83
2022-11-16T01:09:45.434Z,7.03
2022-11-16T01:11:36.750Z,6.60
2022-11-16T01:13:08.415Z,6.80
2022-11-16T01:14:44.108Z,7.60
2022-11-16T01:16:17.751Z,7.03
2022-11-16T01:17:49.676Z,7.70
2022-11-16T01:19:21.448Z,7.17
2022-11-16T01:20:54.213Z,7.17
2022-11-16T01:22:25.889Z,7.50
2022-11-16T01:23:57.728Z,7.30
2022-11-16T01:25:29.362Z,6.93
2022-11-16T01:27:01.657Z,6.93
2022-11-16T01:28:36.696Z,7.00
2022-11-16T01:30:10.967Z,7.20
2022-11-16T01:31:46.710Z,6.87
2022-11-16T01:33:18.322Z,8.20
2022-11-16T01:34:50.594Z,7.40
2022-11-16T01:36:32.122Z,7.50
2022-11-16T01:38:06.111Z,6.80
2022-11-16T01:39:39.087Z,6.10
2022-11-16T01:41:17.526Z,7.50
2022-11-16T01:42:53.668Z,6.90
2022-11-16T01:44:31.482Z,7.20
2022-11-16T01:46:09.303Z,7.20
2022-11-16T01:47:41.127Z,6.90
2022-11-16T01:49:16.881Z,7.30
2022-11-16T01:50:49.792Z,6.80
2022-11-16T01:52:27.540Z,6.50
2022-11-16T01:54:02.776Z,7.60
2022-11-16T01:55:36.847Z,7.20
2022-11-16T01:57:27.573Z,6.23
2022-11-16T01:59:08.147Z,7.03
2022-11-16T02:00:40.399Z,6.80
2022-11-16T02:02:32.404Z,6.50
2022-11-16T02:04:04.327Z,6.40
2022-11-16T02:05:56.247Z,6.53
2022-11-16T02:08:07.984Z,6.80
2022-11-16T02:10:14.835Z,7.30
2022-11-16T02:12:13.845Z,6.97
2022-11-16T02:13:54.623Z,6.10
2022-11-16T02:15:44.871Z,6.10
2022-11-16T02:17:43.087Z,7.50
2022-11-16T02:19:37.281Z,6.20
2022-11-16T02:21:41.068Z,5.97
2022-11-16T02:23:50.273Z,6.17
2022-11-16T02:25:30.491Z,6.60
2022-11-16T02:27:35.171Z,6.20
2022-11-16T02:29:15.867Z,6.07
2022-11-16T02:30:52.366Z,6.43
2022-11-16T02:32:43.769Z,6.10
2022-11-16T02:34:19.253Z,6.33
2022-11-16T02:35:54.675Z,6.70
2022-11-16T02:37:30.733Z,6.70
2022-11-16T02:39:07.543Z,5.97
2022-11-16T02:40:46.160Z,5.40
2022-11-16T02:42:32.527Z,6.13
2022-11-16T02:44:27.592Z,6.07
2022-11-16T02:46:05.285Z,6.00
2022-11-16T02:47:39.339Z,5.30
2022-11-16T02:49:17.116Z,6.23
2022-11-16T02:50:54.858Z,5.80
2022-11-16T02:52:28.413Z,5.77
2022-11-16T02:54:12.609Z,6.57
2022-11-16T02:55:46.137Z,5.80
2022-11-16T02:57:28.911Z,5.73
2022-11-16T02:59:00.924Z,5.00
2022-11-16T03:00:45.821Z,5.90
2022-11-16T03:02:25.266Z,5.47
2022-11-16T03:04:10.966Z,5.97
2022-11-16T03:05:59.074Z,6.03
2022-11-16T03:07:41.074Z,5.97
2022-11-16T03:09:25.804Z,5.00
2022-11-16T03:11:24.027Z,5.03
2022-11-16T03:12:57.388Z,6.33
2022-11-16T03:14:57.195Z,6.00
2022-11-16T03:16:40.720Z,4.70
2022-11-16T03:18:15.196Z,4.80
2022-11-16T03:20:01.127Z,5.33
2022-11-16T03:21:55.570Z,4.90
2022-11-16T03:23:28.588Z,4.70
2022-11-16T03:25:00.276Z,4.80
2022-11-16T03:26:46.554Z,4.77
2022-11-16T03:28:22.276Z,4.73
2022-11-16T03:30:12.531Z,3.97
2022-11-16T03:31:52.331Z,4.00
2022-11-16T03:33:30.266Z,4.30
2022-11-16T03:35:17.754Z,4.10
2022-11-16T03:36:52.676Z,4.00
2022-11-16T03:38:27.281Z,3.60
2022-11-16T03:40:01.529Z,3.47
2022-11-16T03:41:38.991Z,3.70
2022-11-16T03:43:11.236Z,4.10
2022-11-16T03:44:46.455Z,3.50
2022-11-16T03:46:18.635Z,3.60
2022-11-16T03:47:50.747Z,3.17
2022-11-16T03:49:23.223Z,3.37
2022-11-16T03:50:56.854Z,3.50
2022-11-16T03:52:29.844Z,3.20
2022-11-16T03:54:01.547Z,3.20
2022-11-16T03:55:33.256Z,2.97
2022-11-16T03:57:05.048Z,3.03
2022-11-16T03:58:37.250Z,2.80
2022-11-16T04:00:09.566Z,3.60
2022-11-16T04:01:48.032Z,2.90
2022-11-16T04:03:20.747Z,3.20
2022-11-16T04:05:11.880Z,2.73
2022-11-16T04:07:01.759Z,2.80
2022-11-16T04:08:52.599Z,2.73
2022-11-16T04:10:43.156Z,2.60
2022-11-16T04:12:33.710Z,2.83
2022-11-16T04:14:24.661Z,2.43
2022-11-16T04:16:15.186Z,2.80
2022-11-16T04:18:07.141Z,2.50
2022-11-16T04:19:58.413Z,2.70
2022-11-16T04:21:56.670Z,2.60
2022-11-16T04:23:50.028Z,2.60
2022-11-16T04:25:30.192Z,2.57
2022-11-16T04:27:24.223Z,3.00
2022-11-16T04:28:55.920Z,2.57
2022-11-16T04:30:47.758Z,3.00
2022-11-16T04:32:38.249Z,2.70
2022-11-16T04:34:28.713Z,2.63
2022-11-16T04:36:21.754Z,2.80
2022-11-16T04:37:56.882Z,2.83
2022-11-16T04:39:36.151Z,2.90
2022-11-16T04:41:29.270Z,2.60
2022-11-16T04:43:03.366Z,2.50
2022-11-16T04:44:57.890Z,2.40
2022-11-16T04:46:52.328Z,2.53
2022-11-16T04:48:24.012Z,2.60
2022-11-16T04:49:58.499Z,2.63
2022-11-16T04:51:30.248Z,2.60
2022-11-16T04:53:03.792Z,2.50
2022-11-16T04:54:38.577Z,2.57
2022-11-16T04:56:12.395Z,2.30
2022-11-16T04:57:44.157Z,2.40
2022-11-16T04:59:17.826Z,2.10
2022-11-16T05:00:49.483Z,2.07
2022-11-16T05:02:21.229Z,2.20
2022-11-16T05:04:01.864Z,2.23
2022-11-16T05:05:33.670Z,2.50
2022-11-16T05:07:12.344Z,2.57
2022-11-16T05:08:45.770Z,2.27
2022-11-16T05:10:17.707Z,2.40
2022-11-16T05:11:49.649Z,2.20
2022-11-16T05:13:21.385Z,2.30
2022-11-16T05:14:57.501Z,1.97
2022-11-16T05:16:31.998Z,2.50
2022-11-16T05:18:03.872Z,2.40
2022-11-16T05:19:54.171Z,3.00
2022-11-16T05:21:27.131Z,2.80
2022-11-16T05:22:58.883Z,3.47
2022-11-16T05:24:35.566Z,3.33
2022-11-16T05:26:08.789Z,3.17
2022-11-16T05:27:40.517Z,2.60
2022-11-16T05:29:12.204Z,3.33
2022-11-16T05:30:45.812Z,3.73
2022-11-16T05:32:20.882Z,3.53
2022-11-16T05:33:53.114Z,3.13
2022-11-16T05:35:24.971Z,3.07
2022-11-16T05:36:57.763Z,3.40
2022-11-16T05:38:30.135Z,2.77
2022-11-16T05:40:04.644Z,3.70
2022-11-16T05:41:45.847Z,2.80
2022-11-16T05:43:17.513Z,2.70
2022-11-16T05:44:57.835Z,2.50
2022-11-16T05:46:30.110Z,3.40
2022-11-16T05:48:04.649Z,3.17
2022-11-16T05:49:36.338Z,4.00
2022-11-16T05:51:08.160Z,3.87
2022-11-16T05:52:40.118Z,3.67
2022-11-16T05:54:19.571Z,4.90
2022-11-16T05:55:51.557Z,7.07
2022-11-16T05:57:24.473Z,5.70
2022-11-16T05:58:57.019Z,5.90
2022-11-16T06:00:28.682Z,6.70
2022-11-16T06:02:00.448Z,7.50
2022-11-16T06:03:33.041Z,5.60
2022-11-16T06:05:05.456Z,5.07
2022-11-16T06:06:37.845Z,4.13
2022-11-16T06:08:09.606Z,4.20
2022-11-16T06:09:41.302Z,4.40
2022-11-16T06:11:21.404Z,3.80
2022-11-16T06:12:53.079Z,4.63
2022-11-16T06:14:24.859Z,3.87
2022-11-16T06:15:56.556Z,3.90
2022-11-16T06:17:28.311Z,3.97
2022-11-16T06:19:00.515Z,4.27
2022-11-16T06:20:32.468Z,3.70
2022-11-16T06:22:07.223Z,3.90
2022-11-16T06:23:39.027Z,4.10
2022-11-16T06:25:10.903Z,3.80
2022-11-16T06:26:47.076Z,4.17
2022-11-16T06:28:18.764Z,4.10
2022-11-16T06:29:50.583Z,4.00
2022-11-16T06:31:22.584Z,4.40
2022-11-16T06:32:54.384Z,4.77
2022-11-16T06:34:26.103Z,3.87
2022-11-16T06:35:57.856Z,4.17
2022-11-16T06:37:30.220Z,3.60
2022-11-16T06:39:02.107Z,4.03
2022-11-16T06:40:37.897Z,4.00
2022-11-16T06:42:09.616Z,3.40
2022-11-16T06:43:41.286Z,3.73
2022-11-16T06:45:13.034Z,3.60
2022-11-16T06:46:49.035Z,3.60
2022-11-16T06:48:21.260Z,3.60
2022-11-16T06:49:53.295Z,3.40
2022-11-16T06:51:27.296Z,3.30
2022-11-16T06:53:00.750Z,2.93
2022-11-16T06:54:33.284Z,3.27
2022-11-16T06:56:06.407Z,3.40
2022-11-16T06:57:44.200Z,3.20
2022-11-16T06:59:19.568Z,3.57
2022-11-16T07:00:51.577Z,3.40
2022-11-16T07:02:28.172Z,3.53
2022-11-16T07:04:02.143Z,3.40
2022-11-16T07:05:36.517Z,2.93
2022-11-16T07:07:10.564Z,3.30
2022-11-16T07:08:44.964Z,3.37
2022-11-16T07:10:18.345Z,3.33
2022-11-16T07:11:50.079Z,3.07
2022-11-16T07:13:23.064Z,3.20
2022-11-16T07:14:54.696Z,3.53
2022-11-16T07:16:30.096Z,3.40
2022-11-16T07:19:57.472Z,3.10
2022-11-16T07:21:29.463Z,3.50
2022-11-16T07:23:03.816Z,3.43
2022-11-16T07:24:35.625Z,3.07
2022-11-16T07:26:09.668Z,2.53
2022-11-16T07:27:47.524Z,3.03
2022-11-16T07:29:20.533Z,2.60
2022-11-16T07:31:13.336Z,3.10
2022-11-16T07:32:45.545Z,3.00
2022-11-16T07:34:27.129Z,3.10
2022-11-16T07:36:11.974Z,2.83
2022-11-16T07:37:44.016Z,2.80
2022-11-16T07:39:16.837Z,2.83
2022-11-16T07:40:49.467Z,2.90
2022-11-16T07:42:23.704Z,3.30
2022-11-16T07:44:30.957Z,3.27
2022-11-16T07:48:13.387Z,3.80
2022-11-16T07:50:06.401Z,4.10
2022-11-16T07:51:39.906Z,4.17
2022-11-16T07:53:31.098Z,3.60
2022-11-16T07:55:02.962Z,3.30
2022-11-16T07:56:35.589Z,3.70
2022-11-16T07:58:07.258Z,3.33
2022-11-16T07:59:39.733Z,3.70
2022-11-16T08:01:15.040Z,3.20
2022-11-16T08:02:47.793Z,3.20
2022-11-16T08:04:23.534Z,3.50
2022-11-16T08:06:10.950Z,3.10
2022-11-16T08:07:42.706Z,2.80
2022-11-16T08:09:14.438Z,2.60
2022-11-16T08:10:46.381Z,2.20
2022-11-16T08:12:18.211Z,2.27
2022-11-16T08:13:50.103Z,2.30
2022-11-16T08:15:22.727Z,2.93
2022-11-16T08:16:54.996Z,2.40
2022-11-16T08:18:28.019Z,2.63
2022-11-16T08:19:59.623Z,2.87
2022-11-16T08:21:31.278Z,2.97
2022-11-16T08:23:03.129Z,2.43
2022-11-16T08:24:38.355Z,2.57
2022-11-16T08:26:14.444Z,2.27
2022-11-16T08:27:47.861Z,2.40
2022-11-16T08:29:22.185Z,2.70
2022-11-16T08:30:56.226Z,2.37
2022-11-16T08:32:29.953Z,2.40
2022-11-16T08:34:01.778Z,2.40
2022-11-16T08:35:34.423Z,2.27
2022-11-16T08:37:06.904Z,3.00
2022-11-16T08:38:50.716Z,2.30
2022-11-16T08:40:23.708Z,2.10
2022-11-16T08:41:55.422Z,2.33
2022-11-16T08:43:27.257Z,2.30
2022-11-16T08:44:58.948Z,1.60
2022-11-16T08:46:31.136Z,2.00
2022-11-16T08:48:13.028Z,2.30
2022-11-16T08:49:49.367Z,2.00
2022-11-16T08:51:22.459Z,2.20
2022-11-16T08:53:00.716Z,2.17
2022-11-16T08:54:32.793Z,2.20
2022-11-16T08:56:10.090Z,2.20
2022-11-16T08:57:42.150Z,3.03
2022-11-16T08:59:16.288Z,1.73
2022-11-16T09:00:52.974Z,2.10
2022-11-16T09:02:25.622Z,2.17
2022-11-16T09:03:57.535Z,2.00
2022-11-16T09:05:29.379Z,2.03
2022-11-16T09:07:01.153Z,2.50
2022-11-16T09:08:33.613Z,1.80
2022-11-16T09:10:07.112Z,1.83
2022-11-16T09:11:38.931Z,2.10
2022-11-16T09:13:10.580Z,2.30
2022-11-16T09:14:42.439Z,2.17
2022-11-16T09:16:17.737Z,2.70
2022-11-16T09:17:54.630Z,2.10
2022-11-16T09:19:26.411Z,2.40
2022-11-16T09:20:58.331Z,3.07
2022-11-16T09:22:29.979Z,1.97
2022-11-16T09:24:03.096Z,2.33
2022-11-16T09:25:34.805Z,2.27
2022-11-16T09:27:06.746Z,2.20
2022-11-16T09:28:38.482Z,1.87
2022-11-16T09:30:11.631Z,2.33
2022-11-16T09:31:43.405Z,1.87
2022-11-16T09:33:15.091Z,2.20
2022-11-16T09:34:53.772Z,2.17
2022-11-16T09:36:27.445Z,2.17
2022-11-16T09:37:59.071Z,2.27
2022-11-16T09:39:32.424Z,2.43
2022-11-16T09:41:13.942Z,2.17
2022-11-16T09:43:04.336Z,1.73
2022-11-16T09:44:47.301Z,1.67
2022-11-16T09:46:40.819Z,1.67
2022-11-16T09:48:15.757Z,1.70
2022-11-16T09:50:07.045Z,2.10
2022-11-16T09:51:41.376Z,2.13
2022-11-16T09:53:19.230Z,1.63
2022-11-16T09:54:51.462Z,1.83
2022-11-16T09:56:25.697Z,1.77
2022-11-16T09:58:01.169Z,2.10
2022-11-16T09:59:42.795Z,2.50
2022-11-16T10:01:22.783Z,2.30
2022-11-16T10:03:14.662Z,2.20
2022-11-16T10:04:58.116Z,2.50
2022-11-16T10:06:59.003Z,2.40
2022-11-16T10:08:53.377Z,2.30
2022-11-16T10:10:39.789Z,2.00
2022-11-16T10:12:37.905Z,2.10
2022-11-16T10:14:24.797Z,2.00
2022-11-16T10:16:19.893Z,1.70
2022-11-16T10:18:10.255Z,1.67
2022-11-16T10:19:55.837Z,1.83
2022-11-16T10:22:12.529Z,1.70
2022-11-16T10:24:02.846Z,2.10
2022-11-16T10:25:45.572Z,1.40
2022-11-16T10:28:04.252Z,1.73
2022-11-16T10:29:41.754Z,1.97
2022-11-16T10:31:30.590Z,1.60
2022-11-16T10:33:11.337Z,1.70
2022-11-16T10:34:50.462Z,2.07
2022-11-16T10:36:27.298Z,2.27
2022-11-16T10:38:02.483Z,2.30
2022-11-16T10:39:34.417Z,1.97
2022-11-16T10:41:19.702Z,2.63
2022-11-16T10:43:00.075Z,1.90
2022-11-16T10:44:37.955Z,1.60
2022-11-16T10:46:39.577Z,2.00
2022-11-16T10:48:48.525Z,1.70
2022-11-16T10:50:32.408Z,1.47
2022-11-16T10:52:04.378Z,2.00
2022-11-16T10:53:40.799Z,1.90
2022-11-16T10:55:16.270Z,1.63
2022-11-16T10:56:51.924Z,1.30
2022-11-16T10:58:23.584Z,1.70
2022-11-16T10:59:55.554Z,1.57
2022-11-16T11:01:36.321Z,1.73
2022-11-16T11:03:10.653Z,1.80
2022-11-16T11:05:26.841Z,1.53
2022-11-16T11:07:01.293Z,1.83
2022-11-16T11:08:33.015Z,1.70
2022-11-16T11:10:28.505Z,1.50
2022-11-16T11:12:38.387Z,1.70
2022-11-16T11:14:13.984Z,2.50
2022-11-16T11:15:45.795Z,1.60
2022-11-16T11:17:17.922Z,2.07
2022-11-16T11:18:51.276Z,1.70
2022-11-16T11:20:24.302Z,2.27
2022-11-16T11:22:00.669Z,1.53
2022-11-16T11:23:46.394Z,1.60
2022-11-16T11:25:26.274Z,1.90
2022-11-16T11:26:59.546Z,1.80
2022-11-16T11:28:34.756Z,1.73
2022-11-16T11:30:16.070Z,1.63
2022-11-16T11:31:52.115Z,1.23
2022-11-16T11:33:26.182Z,1.37
2022-11-16T11:35:00.241Z,1.70
2022-11-16T11:36:40.365Z,1.40
2022-11-16T11:38:14.924Z,1.70
2022-11-16T11:39:46.650Z,1.53
2022-11-16T11:41:19.421Z,1.90
2022-11-16T11:42:58.627Z,1.97
2022-11-16T11:44:52.604Z,1.67
2022-11-16T11:46:50.204Z,1.70
2022-11-16T11:48:35.496Z,1.80
2022-11-16T11:50:16.493Z,2.03
2022-11-16T11:51:49.799Z,1.87
2022-11-16T11:53:42.819Z,2.17
2022-11-16T11:55:17.660Z,1.40
2022-11-16T11:56:49.413Z,1.83
2022-11-16T11:58:22.466Z,1.73
2022-11-16T11:59:55.106Z,1.87
2022-11-16T12:01:48.120Z,1.77
2022-11-16T12:03:33.150Z,1.70
2022-11-16T12:05:29.256Z,1.40
2022-11-16T12:07:31.835Z,1.80
2022-11-16T12:09:09.613Z,1.20
2022-11-16T12:10:52.506Z,1.80
2022-11-16T12:13:02.203Z,1.43
2022-11-16T12:15:10.435Z,1.60
2022-11-16T12:16:55.429Z,1.90
2022-11-16T12:18:39.300Z,1.83
2022-11-16T12:20:58.374Z,1.80
2022-11-16T12:23:08.690Z,1.43
2022-11-16T12:25:07.175Z,1.87
2022-11-16T12:26:53.064Z,1.60
2022-11-16T12:28:49.882Z,1.50
2022-11-16T12:30:23.921Z,1.40
2022-11-16T12:32:43.070Z,2.00
2022-11-16T12:34:35.488Z,1.57
2022-11-16T12:36:24.988Z,2.20
2022-11-16T12:38:14.029Z,2.07
2022-11-16T12:40:06.260Z,1.93
2022-11-16T12:41:52.621Z,1.60
2022-11-16T12:43:42.710Z,1.60
2022-11-16T12:45:32.152Z,1.70
2022-11-16T12:47:09.749Z,2.03
2022-11-16T12:49:19.048Z,1.60
2022-11-16T12:50:59.742Z,1.70
2022-11-16T12:52:46.149Z,1.77
2022-11-16T12:54:52.252Z,1.50
2022-11-16T12:57:06.981Z,1.77
2022-11-16T12:59:20.031Z,1.83
2022-11-16T13:01:09.761Z,1.67
2022-11-16T13:03:00.017Z,1.60
2022-11-16T13:04:50.522Z,1.67
2022-11-16T13:06:33.497Z,1.40
2022-11-16T13:08:12.058Z,1.40
2022-11-16T13:09:51.416Z,1.70
2022-11-16T13:11:29.972Z,1.47
2022-11-16T13:13:34.797Z,1.47
2022-11-16T13:15:01.766Z,1.50
2022-11-16T13:16:34.564Z,1.27
2022-11-16T13:18:11.503Z,1.30
2022-11-16T13:19:46.735Z,1.60
2022-11-16T13:21:24.416Z,1.70
2022-11-16T13:23:03.531Z,1.30
2022-11-16T13:24:58.579Z,1.30
2022-11-16T13:26:43.995Z,1.30
2022-11-16T13:28:34.037Z,1.50
2022-11-16T13:30:32.696Z,2.03
2022-11-16T13:32:37.659Z,1.33
2022-11-16T13:34:27.329Z,1.60
2022-11-16T13:35:58.977Z,2.30
2022-11-16T13:37:36.640Z,1.80
2022-11-16T13:39:09.217Z,1.90
2022-11-16T13:40:41.284Z,1.50
2022-11-16T13:42:13.905Z,1.60
2022-11-16T13:43:49.772Z,1.60
2022-11-16T13:45:23.068Z,1.37
2022-11-16T13:47:17.082Z,1.53
2022-11-16T13:48:49.061Z,1.43
2022-11-16T13:50:24.136Z,1.30
2022-11-16T13:52:21.455Z,1.30
2022-11-16T13:55:46.638Z,1.23
2022-11-16T13:57:33.297Z,1.17
2022-11-16T13:59:04.940Z,1.50
2022-11-16T14:00:39.900Z,1.20
2022-11-16T14:02:32.644Z,1.23
2022-11-16T14:04:38.356Z,1.10
2022-11-16T14:06:12.979Z,1.90
2022-11-16T14:07:50.469Z,1.43
2022-11-16T14:09:45.413Z,1.30
2022-11-16T14:11:37.304Z,1.50
2022-11-16T14:13:47.237Z,1.40
2022-11-16T14:15:31.000Z,1.33
2022-11-16T14:17:02.661Z,1.50
2022-11-16T14:18:36.950Z,1.53
2022-11-16T14:20:12.616Z,1.40
2022-11-16T14:21:50.278Z,1.43
2022-11-16T14:23:24.640Z,1.73
2022-11-16T14:25:13.639Z,1.33
2022-11-16T14:27:04.164Z,1.60
2022-11-16T14:29:06.165Z,1.20
2022-11-16T14:31:07.136Z,1.23
2022-11-16T14:32:52.158Z,1.63
2022-11-16T14:34:39.714Z,1.70
2022-11-16T14:36:11.637Z,2.27
2022-11-16T14:37:43.410Z,1.40
2022-11-16T14:39:38.370Z,1.57
2022-11-16T14:41:22.372Z,1.50
2022-11-16T14:43:16.324Z,1.47
2022-11-16T14:44:50.189Z,1.30
2022-11-16T14:46:26.137Z,1.33
2022-11-16T14:48:15.166Z,1.60
2022-11-16T14:49:47.958Z,1.43
2022-11-16T14:51:24.753Z,1.63
2022-11-16T14:53:07.484Z,1.30
2022-11-16T14:54:45.462Z,1.30
2022-11-16T14:56:18.614Z,1.50
2022-11-16T14:58:07.973Z,1.30
2022-11-16T14:59:39.627Z,1.30
2022-11-16T15:01:14.990Z,1.50
2022-11-16T15:02:52.083Z,1.83
2022-11-16T15:04:26.269Z,3.40
2022-11-16T15:06:00.342Z,3.70
2022-11-16T15:07:32.390Z,3.30
2022-11-16T15:09:05.649Z,3.63
2022-11-16T15:10:43.046Z,3.00
2022-11-16T15:12:36.284Z,2.70
2022-11-16T15:14:08.821Z,2.43
2022-11-16T15:15:40.507Z,2.67
2022-11-16T15:17:18.434Z,2.83
2022-11-16T15:18:57.698Z,2.90
2022-11-16T15:20:31.897Z,3.53
2022-11-16T15:22:04.460Z,3.00
2022-11-16T15:24:02.113Z,2.50
2022-11-16T15:26:02.278Z,2.90
2022-11-16T15:27:40.822Z,2.97
2022-11-16T15:29:18.159Z,2.30
2022-11-16T15:31:01.556Z,3.13
2022-11-16T15:32:38.042Z,3.77
2022-11-16T15:34:15.995Z,4.13
2022-11-16T15:35:47.690Z,4.93
2022-11-16T15:37:29.919Z,4.80
2022-11-16T15:39:03.822Z,4.73
2022-11-16T15:40:35.735Z,4.37
2022-11-16T15:42:14.692Z,4.50
2022-11-16T15:44:13.529Z,4.40
2022-11-16T15:45:47.219Z,4.67
2022-11-16T15:47:20.264Z,4.03
2022-11-16T15:48:53.323Z,3.70
2022-11-16T15:50:25.117Z,3.30
2022-11-16T15:51:58.733Z,2.73
2022-11-16T15:53:34.399Z,2.97
2022-11-16T15:55:06.639Z,2.50
2022-11-16T15:56:38.431Z,2.60
2022-11-16T15:58:26.571Z,2.00
2022-11-16T15:59:58.328Z,2.20
2022-11-16T16:01:30.560Z,2.90
2022-11-16T16:03:26.642Z,2.50
2022-11-16T16:04:58.426Z,2.37
2022-11-16T16:06:53.501Z,2.17
2022-11-16T16:08:35.602Z,2.13
2022-11-16T16:10:25.101Z,2.13
2022-11-16T16:12:21.347Z,1.80
2022-11-16T16:14:01.851Z,1.93
2022-11-16T16:15:36.490Z,1.80
2022-11-16T16:17:10.272Z,2.20
2022-11-16T16:18:45.542Z,1.40
2022-11-16T16:20:20.052Z,1.60
2022-11-16T16:21:52.167Z,1.90
2022-11-16T16:23:25.541Z,1.67
2022-11-16T16:24:57.604Z,1.90
2022-11-16T16:26:29.707Z,1.50
2022-11-16T16:28:01.386Z,1.43
2022-11-16T16:29:32.997Z,1.87
2022-11-16T16:31:04.677Z,1.37
2022-11-16T16:32:37.494Z,1.87
2022-11-16T16:34:12.249Z,1.63
2022-11-16T16:35:45.415Z,2.27
2022-11-16T16:37:17.077Z,2.83
2022-11-16T16:38:48.695Z,2.90
2022-11-16T16:40:20.322Z,2.80
2022-11-16T16:41:51.976Z,2.80
2022-11-16T16:43:23.680Z,2.57
2022-11-16T16:44:55.350Z,2.63
2022-11-16T16:46:26.983Z,1.90
2022-11-16T16:47:58.657Z,1.50
2022-11-16T16:49:30.769Z,2.00
2022-11-16T16:51:02.408Z,1.90
2022-11-16T16:52:34.092Z,1.53
2022-11-16T16:54:05.891Z,2.10
2022-11-16T16:55:39.813Z,1.93
2022-11-16T16:57:17.109Z,1.50
2022-11-16T16:58:48.769Z,1.90
2022-11-16T17:00:20.729Z,1.70
2022-11-16T17:01:52.398Z,1.80
2022-11-16T17:03:24.103Z,1.90
2022-11-16T17:04:55.776Z,1.90
2022-11-16T17:06:27.493Z,2.10
2022-11-16T17:07:59.229Z,2.23
2022-11-16T17:09:30.946Z,2.00
2022-11-16T17:11:03.495Z,1.67
2022-11-16T17:12:35.238Z,2.00
2022-11-16T17:14:07.902Z,2.20
2022-11-16T17:15:39.689Z,3.03
2022-11-16T17:17:11.382Z,3.10
2022-11-16T17:18:44.574Z,3.20
2022-11-16T17:20:16.483Z,3.50
2022-11-16T17:21:48.804Z,3.10
2022-11-16T17:23:20.538Z,3.27
2022-11-16T17:24:52.203Z,2.80
2022-11-16T17:26:27.985Z,2.50
2022-11-16T17:27:59.885Z,2.50
2022-11-16T17:29:31.509Z,2.37
2022-11-16T17:31:08.817Z,1.93
2022-11-16T17:32:40.439Z,2.03
2022-11-16T17:34:13.749Z,2.07
2022-11-16T17:35:56.196Z,2.77
2022-11-16T17:37:28.853Z,2.20
2022-11-16T17:39:00.538Z,2.10
2022-11-16T17:40:32.250Z,1.73
2022-11-16T17:42:04.066Z,2.10
2022-11-16T17:43:36.643Z,2.10
2022-11-16T17:45:09.199Z,1.90
2022-11-16T17:46:40.838Z,2.23
2022-11-16T17:48:12.427Z,2.10
2022-11-16T17:49:44.689Z,2.33
2022-11-16T17:51:22.571Z,2.30
2022-11-16T17:52:54.222Z,2.77
2022-11-16T17:54:25.813Z,2.03
2022-11-16T17:55:57.569Z,2.67
2022-11-16T17:57:29.230Z,2.10
2022-11-16T17:59:00.958Z,2.57
2022-11-16T18:00:32.565Z,2.50
2022-11-16T18:02:04.247Z,2.23
2022-11-16T18:03:38.651Z,2.50
2022-11-16T18:05:10.291Z,2.50
2022-11-16T18:06:41.973Z,2.93
2022-11-16T18:08:13.613Z,2.23
2022-11-16T18:09:45.231Z,2.47
2022-11-16T18:11:20.626Z,2.93
2022-11-16T18:12:52.766Z,2.80
2022-11-16T18:14:24.390Z,2.63
2022-11-16T18:16:03.024Z,2.20
2022-11-16T18:17:36.155Z,3.30
2022-11-16T18:19:07.975Z,2.50
2022-11-16T18:20:39.669Z,2.30
2022-11-16T18:22:11.309Z,3.13
2022-11-16T18:23:43.020Z,3.03
2022-11-16T18:25:15.087Z,2.53
2022-11-16T18:26:46.747Z,2.93
2022-11-16T18:28:18.766Z,2.60
2022-11-16T18:29:50.412Z,2.53
2022-11-16T18:31:24.199Z,2.63
2022-11-16T18:32:55.938Z,2.90
2022-11-16T18:34:27.719Z,2.77
2022-11-16T18:35:59.664Z,2.30
2022-11-16T18:37:31.287Z,2.37
2022-11-16T18:39:03.019Z,2.93
2022-11-16T18:40:34.740Z,2.83
2022-11-16T18:42:06.467Z,2.50
2022-11-16T18:43:40.451Z,3.17
2022-11-16T18:45:12.060Z,2.33
2022-11-16T18:46:43.754Z,2.63
2022-11-16T18:48:15.354Z,2.50
2022-11-16T18:49:47.062Z,3.00
2022-11-16T18:51:20.103Z,2.50
2022-11-16T18:52:51.828Z,2.57
2022-11-16T18:54:23.426Z,3.00
2022-11-16T18:55:58.050Z,2.90
2022-11-16T18:57:30.796Z,3.20
2022-11-16T18:59:03.187Z,3.00
2022-11-16T19:00:35.065Z,2.60
2022-11-16T19:02:06.997Z,2.33
2022-11-16T19:03:38.784Z,2.40
2022-11-16T19:05:10.481Z,2.40
2022-11-16T19:06:42.272Z,2.87
2022-11-16T19:08:14.541Z,2.23
2022-11-16T19:09:46.195Z,2.70
2022-11-16T19:11:18.066Z,2.20
2022-11-16T19:12:49.679Z,2.77
2022-11-16T19:14:21.296Z,2.43
2022-11-16T19:15:55.273Z,2.77
2022-11-16T19:17:26.945Z,2.50
2022-11-16T19:18:58.630Z,2.80
2022-11-16T19:20:30.319Z,2.70
2022-11-16T19:22:02.071Z,2.40
2022-11-16T19:23:42.784Z,2.60
2022-11-16T19:25:14.559Z,4.13
2022-11-16T19:26:46.288Z,2.30
2022-11-16T19:28:17.907Z,2.40
2022-11-16T19:29:49.544Z,2.30
2022-11-16T19:31:32.086Z,2.60
2022-11-16T19:33:03.983Z,2.30
2022-11-16T19:34:35.586Z,1.90
2022-11-16T19:36:11.825Z,2.20
2022-11-16T19:37:43.592Z,2.30
2022-11-16T19:39:15.229Z,2.20
2022-11-16T19:40:50.384Z,1.90
2022-11-16T19:42:22.108Z,2.33
2022-11-16T19:43:59.703Z,2.40
2022-11-16T19:45:31.918Z,2.17
2022-11-16T19:47:05.266Z,2.10
2022-11-16T19:48:37.618Z,2.53
2022-11-16T19:50:10.683Z,2.40
2022-11-16T19:51:42.335Z,2.23
2022-11-16T19:53:13.951Z,2.87
2022-11-16T19:54:45.845Z,2.50
2022-11-16T19:56:20.045Z,2.23
2022-11-16T19:57:51.740Z,2.73
2022-11-16T19:59:23.411Z,2.50
2022-11-16T20:01:21.553Z,2.37
2022-11-16T20:02:57.425Z,2.70
2022-11-16T20:04:33.444Z,2.23
2022-11-16T20:06:08.916Z,2.67
2022-11-16T20:07:40.737Z,2.30
2022-11-16T20:09:12.890Z,2.17
2022-11-16T20:10:44.592Z,2.50
2022-11-16T20:12:16.244Z,2.77
2022-11-16T20:13:49.146Z,2.40
2022-11-16T20:15:22.491Z,3.43
2022-11-16T20:16:54.233Z,2.77
2022-11-16T20:18:27.429Z,2.70
2022-11-16T20:19:59.044Z,3.13
2022-11-16T20:21:39.811Z,2.97
2022-11-16T20:23:15.463Z,3.17
2022-11-16T20:24:47.188Z,2.60
2022-11-16T20:26:20.173Z,2.40
2022-11-16T20:27:51.779Z,3.80
2022-11-16T20:29:23.546Z,4.30
2022-11-16T20:30:55.189Z,3.57
2022-11-16T20:32:26.897Z,3.60
2022-11-16T20:34:00.446Z,4.17
2022-11-16T20:35:33.220Z,4.23
2022-11-16T20:37:05.432Z,3.73
2022-11-16T20:38:38.489Z,3.60
2022-11-16T20:40:10.859Z,2.93
2022-11-16T20:41:43.781Z,3.63
2022-11-16T20:43:15.490Z,3.10
2022-11-16T20:44:47.114Z,2.93
2022-11-16T20:46:20.646Z,3.07
2022-11-16T20:47:52.422Z,2.97
2022-11-16T20:49:24.210Z,2.80
2022-11-16T20:50:56.983Z,2.50
2022-11-16T20:52:28.674Z,2.13
2022-11-16T20:54:00.387Z,2.90
2022-11-16T20:55:32.407Z,2.50
2022-11-16T20:57:04.598Z,2.33
2022-11-16T20:58:36.876Z,2.40
2022-11-16T21:00:09.082Z,2.43
2022-11-16T21:01:43.209Z,2.73
2022-11-16T21:03:14.926Z,2.50
2022-11-16T21:04:46.529Z,2.40
2022-11-16T21:06:18.171Z,2.90
2022-11-16T21:07:49.807Z,2.70
2022-11-16T21:09:22.764Z,2.40
2022-11-16T21:10:54.619Z,2.50
2022-11-16T21:12:44.747Z,2.30
2022-11-16T21:14:16.406Z,2.10
2022-11-16T21:15:56.179Z,2.47
2022-11-16T21:17:27.807Z,2.50
2022-11-16T21:19:00.284Z,2.43
2022-11-16T21:20:31.944Z,2.40
2022-11-16T21:22:03.615Z,2.43
2022-11-16T21:23:37.320Z,2.23
2022-11-16T21:25:09.430Z,2.30
2022-11-16T21:26:41.044Z,2.80
2022-11-16T21:28:12.841Z,2.60
2022-11-16T21:29:44.453Z,2.17
2022-11-16T21:31:21.578Z,2.27
2022-11-16T21:32:53.283Z,2.30
2022-11-16T21:34:27.704Z,2.10
2022-11-16T21:36:07.923Z,2.93
2022-11-16T21:37:39.560Z,2.30
2022-11-16T21:39:11.232Z,2.83
2022-11-16T21:40:44.083Z,2.60
2022-11-16T21:42:15.785Z,2.50
2022-11-16T21:43:47.859Z,2.43
2022-11-16T21:45:19.537Z,2.20